sensor_id;sensor_type;location;lat;lon;timestamp;pressure;altitude;pressure_sealevel;temperature;humidity
78223;BME280;67497;53.058;21.618;2024-03-25T00:00:37;98983.91;;;1.55;100.00
78223;BME280;67497;53.058;21.618;2024-03-25T00:02:38;98986.75;;;1.53;100.00
78223;BME280;67497;53.058;21.618;2024-03-25T00:04:39;98985.28;;;1.49;100.00
78223;BME280;67497;53.058;21.618;2024-03-25T00:06:39;98979.63;;;1.52;100.00
78223;BME280;67497;53.058;21.618;2024-03-25T00:08:40;98977.06;;;1.51;100.00
78223;BME280;67497;53.058;21.618;2024-03-25T00:10:40;98983.03;;;1.54;100.00
78223;BME280;67497;53.058;21.618;2024-03-25T00:12:40;98983.31;;;1.51;100.00
78223;BME280;67497;53.058;21.618;2024-03-25T00:14:41;98982.47;;;1.51;100.00
78223;BME280;67497;53.058;21.618;2024-03-25T00:16:41;98985.88;;;1.53;100.00
78223;BME280;67497;53.058;21.618;2024-03-25T00:18:41;98976.31;;;1.49;100.00
78223;BME280;67497;53.058;21.618;2024-03-25T00:20:42;98976.19;;;1.50;100.00
78223;BME280;67497;53.058;21.618;2024-03-25T00:22:42;98977.19;;;1.49;100.00
78223;BME280;67497;53.058;21.618;2024-03-25T00:24:42;98967.13;;;1.51;100.00
78223;BME280;67497;53.058;21.618;2024-03-25T00:26:43;98965.41;;;1.50;100.00
78223;BME280;67497;53.058;21.618;2024-03-25T00:28:43;98966.13;;;1.52;100.00
78223;BME280;67497;53.058;21.618;2024-03-25T00:30:44;98970.53;;;1.53;100.00
78223;BME280;67497;53.058;21.618;2024-03-25T00:32:45;98972.72;;;1.59;100.00
78223;BME280;67497;53.058;21.618;2024-03-25T00:34:45;98963.53;;;1.62;100.00
78223;BME280;67497;53.058;21.618;2024-03-25T00:36:45;98962.91;;;1.58;100.00
78223;BME280;67497;53.058;21.618;2024-03-25T00:38:46;98967.03;;;1.62;100.00
78223;BME280;67497;53.058;21.618;2024-03-25T00:40:46;98966.31;;;1.60;100.00
78223;BME280;67497;53.058;21.618;2024-03-25T00:42:46;98960.69;;;1.63;100.00
78223;BME280;67497;53.058;21.618;2024-03-25T00:44:47;98965.56;;;1.69;100.00
78223;BME280;67497;53.058;21.618;2024-03-25T00:46:48;98962.00;;;1.69;100.00
78223;BME280;67497;53.058;21.618;2024-03-25T00:48:48;98961.41;;;1.65;100.00
78223;BME280;67497;53.058;21.618;2024-03-25T00:50:49;98960.56;;;1.65;100.00
78223;BME280;67497;53.058;21.618;2024-03-25T00:52:49;98955.63;;;1.70;100.00
78223;BME280;67497;53.058;21.618;2024-03-25T00:54:49;98959.66;;;1.75;100.00
78223;BME280;67497;53.058;21.618;2024-03-25T00:56:50;98959.75;;;1.74;100.00
78223;BME280;67497;53.058;21.618;2024-03-25T00:58:51;98960.16;;;1.69;100.00
78223;BME280;67497;53.058;21.618;2024-03-25T01:00:51;98959.91;;;1.72;100.00
78223;BME280;67497;53.058;21.618;2024-03-25T01:02:52;98956.44;;;1.70;100.00
78223;BME280;67497;53.058;21.618;2024-03-25T01:04:52;98952.78;;;1.71;100.00
78223;BME280;67497;53.058;21.618;2024-03-25T01:06:52;98952.78;;;1.71;100.00
78223;BME280;67497;53.058;21.618;2024-03-25T01:08:53;98951.53;;;1.75;100.00
78223;BME280;67497;53.058;21.618;2024-03-25T01:10:53;98952.25;;;1.77;100.00
78223;BME280;67497;53.058;21.618;2024-03-25T01:12:53;98959.25;;;1.80;100.00
78223;BME280;67497;53.058;21.618;2024-03-25T01:14:54;98946.88;;;1.77;100.00
78223;BME280;67497;53.058;21.618;2024-03-25T01:16:54;98947.56;;;1.79;99.92
78223;BME280;67497;53.058;21.618;2024-03-25T01:18:56;98941.47;;;1.77;100.00
78223;BME280;67497;53.058;21.618;2024-03-25T01:20:56;98948.56;;;1.78;100.00
78223;BME280;67497;53.058;21.618;2024-03-25T01:22:57;98947.31;;;1.83;100.00
78223;BME280;67497;53.058;21.618;2024-03-25T01:24:57;98941.47;;;1.77;100.00
78223;BME280;67497;53.058;21.618;2024-03-25T01:26:58;98948.56;;;1.78;99.82
78223;BME280;67497;53.058;21.618;2024-03-25T01:28:58;98945.13;;;1.76;100.00
78223;BME280;67497;53.058;21.618;2024-03-25T01:30:58;98941.31;;;1.79;100.00
78223;BME280;67497;53.058;21.618;2024-03-25T01:32:59;98953.19;;;1.88;100.00
78223;BME280;67497;53.058;21.618;2024-03-25T01:34:59;98943.66;;;1.84;99.98
78223;BME280;67497;53.058;21.618;2024-03-25T01:37:00;98950.00;;;1.83;99.60
78223;BME280;67497;53.058;21.618;2024-03-25T01:39:00;98952.00;;;1.80;99.73
78223;BME280;67497;53.058;21.618;2024-03-25T01:41:08;98953.69;;;1.81;99.64
78223;BME280;67497;53.058;21.618;2024-03-25T01:43:09;98951.13;;;1.80;100.00
78223;BME280;67497;53.058;21.618;2024-03-25T01:45:09;98953.94;;;1.78;100.00
78223;BME280;67497;53.058;21.618;2024-03-25T01:47:10;98957.41;;;1.80;100.00
78223;BME280;67497;53.058;21.618;2024-03-25T01:49:11;98951.25;;;1.78;100.00
78223;BME280;67497;53.058;21.618;2024-03-25T01:51:13;98959.34;;;1.78;99.99
78223;BME280;67497;53.058;21.618;2024-03-25T01:53:14;98952.13;;;1.79;100.00
78223;BME280;67497;53.058;21.618;2024-03-25T01:55:18;98949.97;;;1.73;100.00
78223;BME280;67497;53.058;21.618;2024-03-25T01:57:20;98949.38;;;1.69;100.00
78223;BME280;67497;53.058;21.618;2024-03-25T01:59:21;98938.81;;;1.66;99.72
78223;BME280;67497;53.058;21.618;2024-03-25T02:01:22;98941.97;;;1.71;99.79
78223;BME280;67497;53.058;21.618;2024-03-25T02:03:22;98943.97;;;1.69;99.65
78223;BME280;67497;53.058;21.618;2024-03-25T02:05:23;98946.53;;;1.71;99.79
78223;BME280;67497;53.058;21.618;2024-03-25T02:07:24;98940.81;;;1.64;99.95
78223;BME280;67497;53.058;21.618;2024-03-25T02:09:26;98947.91;;;1.65;100.00
78223;BME280;67497;53.058;21.618;2024-03-25T02:11:27;98941.78;;;1.63;100.00
78223;BME280;67497;53.058;21.618;2024-03-25T02:13:28;98945.34;;;1.64;100.00
78223;BME280;67497;53.058;21.618;2024-03-25T02:15:28;98946.66;;;1.69;100.00
78223;BME280;67497;53.058;21.618;2024-03-25T02:17:29;98949.38;;;1.69;100.00
78223;BME280;67497;53.058;21.618;2024-03-25T02:19:30;98950.09;;;1.71;100.00
78223;BME280;67497;53.058;21.618;2024-03-25T02:21:31;98948.50;;;1.69;100.00
78223;BME280;67497;53.058;21.618;2024-03-25T02:23:32;98937.91;;;1.56;100.00
78223;BME280;67497;53.058;21.618;2024-03-25T02:25:34;98947.69;;;1.57;100.00
78223;BME280;67497;53.058;21.618;2024-03-25T02:27:39;98951.25;;;1.58;100.00
78223;BME280;67497;53.058;21.618;2024-03-25T02:29:40;98948.69;;;1.56;100.00
78223;BME280;67497;53.058;21.618;2024-03-25T02:31:40;98959.75;;;1.53;100.00
78223;BME280;67497;53.058;21.618;2024-03-25T02:33:40;98953.09;;;1.57;100.00
78223;BME280;67497;53.058;21.618;2024-03-25T02:35:43;98943.56;;;1.53;99.93
78223;BME280;67497;53.058;21.618;2024-03-25T02:37:44;98946.78;;;1.47;99.79
78223;BME280;67497;53.058;21.618;2024-03-25T02:39:45;98945.19;;;1.45;100.00
78223;BME280;67497;53.058;21.618;2024-03-25T02:41:46;98939.44;;;1.38;100.00
78223;BME280;67497;53.058;21.618;2024-03-25T02:43:46;98951.72;;;1.42;100.00
78223;BME280;67497;53.058;21.618;2024-03-25T02:45:47;98938.31;;;1.41;100.00
78223;BME280;67497;53.058;21.618;2024-03-25T02:47:48;98945.59;;;1.40;100.00
78223;BME280;67497;53.058;21.618;2024-03-25T02:49:48;98951.25;;;1.37;99.97
78223;BME280;67497;53.058;21.618;2024-03-25T02:51:48;98951.25;;;1.37;100.00
78223;BME280;67497;53.058;21.618;2024-03-25T02:53:49;98952.22;;;1.36;100.00
78223;BME280;67497;53.058;21.618;2024-03-25T02:55:49;98947.69;;;1.37;100.00
78223;BME280;67497;53.058;21.618;2024-03-25T02:57:49;98947.81;;;1.35;100.00
78223;BME280;67497;53.058;21.618;2024-03-25T02:59:50;98955.91;;;1.35;100.00
78223;BME280;67497;53.058;21.618;2024-03-25T03:01:50;98944.63;;;1.30;100.00
78223;BME280;67497;53.058;21.618;2024-03-25T03:03:51;98949.06;;;1.31;100.00
78223;BME280;67497;53.058;21.618;2024-03-25T03:05:51;98950.03;;;1.30;100.00
78223;BME280;67497;53.058;21.618;2024-03-25T03:07:51;98952.72;;;1.30;100.00
78223;BME280;67497;53.058;21.618;2024-03-25T03:09:52;98952.97;;;1.27;100.00
78223;BME280;67497;53.058;21.618;2024-03-25T03:11:52;98954.97;;;1.25;100.00
78223;BME280;67497;53.058;21.618;2024-03-25T03:13:52;98954.97;;;1.25;100.00
78223;BME280;67497;53.058;21.618;2024-03-25T03:15:53;98954.84;;;1.27;100.00
78223;BME280;67497;53.058;21.618;2024-03-25T03:17:53;98958.66;;;1.24;100.00
78223;BME280;67497;53.058;21.618;2024-03-25T03:19:53;98955.22;;;1.22;100.00
78223;BME280;67497;53.058;21.618;2024-03-25T03:21:54;98957.28;;;1.30;100.00
78223;BME280;67497;53.058;21.618;2024-03-25T03:23:54;98961.56;;;1.32;100.00
78223;BME280;67497;53.058;21.618;2024-03-25T03:25:55;98956.44;;;1.29;100.00
78223;BME280;67497;53.058;21.618;2024-03-25T03:27:57;98962.78;;;1.28;100.00
78223;BME280;67497;53.058;21.618;2024-03-25T03:29:57;98953.97;;;1.26;100.00
78223;BME280;67497;53.058;21.618;2024-03-25T03:31:58;98958.91;;;1.21;100.00
78223;BME280;67497;53.058;21.618;2024-03-25T03:33:59;98958.66;;;1.24;100.00
78223;BME280;67497;53.058;21.618;2024-03-25T03:35:59;98967.00;;;1.21;100.00
78223;BME280;67497;53.058;21.618;2024-03-25T03:38:00;98966.00;;;1.22;100.00
78223;BME280;67497;53.058;21.618;2024-03-25T03:40:00;98966.00;;;1.22;100.00
78223;BME280;67497;53.058;21.618;2024-03-25T03:42:00;98969.69;;;1.21;100.00
78223;BME280;67497;53.058;21.618;2024-03-25T03:44:02;98972.97;;;1.25;100.00
78223;BME280;67497;53.058;21.618;2024-03-25T03:46:03;98968.69;;;1.22;100.00
78223;BME280;67497;53.058;21.618;2024-03-25T03:48:03;98963.19;;;1.24;100.00
78223;BME280;67497;53.058;21.618;2024-03-25T03:50:04;98960.50;;;1.24;100.00
78223;BME280;67497;53.058;21.618;2024-03-25T03:52:05;98970.28;;;1.25;100.00
78223;BME280;67497;53.058;21.618;2024-03-25T03:54:05;98979.94;;;1.27;100.00
78223;BME280;67497;53.058;21.618;2024-03-25T03:56:06;98970.88;;;1.28;100.00
78223;BME280;67497;53.058;21.618;2024-03-25T03:58:06;98982.41;;;1.30;100.00
78223;BME280;67497;53.058;21.618;2024-03-25T04:00:07;98979.44;;;1.33;100.00
78223;BME280;67497;53.058;21.618;2024-03-25T04:02:08;98974.66;;;1.37;100.00
78223;BME280;67497;53.058;21.618;2024-03-25T04:04:09;98973.19;;;1.33;100.00
78223;BME280;67497;53.058;21.618;2024-03-25T04:06:14;98978.72;;;1.31;100.00
78223;BME280;67497;53.058;21.618;2024-03-25T04:08:14;98975.06;;;1.32;100.00
78223;BME280;67497;53.058;21.618;2024-03-25T04:10:15;98978.47;;;1.34;100.00
78223;BME280;67497;53.058;21.618;2024-03-25T04:12:15;98981.78;;;1.38;100.00
78223;BME280;67497;53.058;21.618;2024-03-25T04:14:16;98984.47;;;1.38;100.00
78223;BME280;67497;53.058;21.618;2024-03-25T04:16:16;98983.63;;;1.37;100.00
78223;BME280;67497;53.058;21.618;2024-03-25T04:18:17;98971.81;;;1.38;100.00
78223;BME280;67497;53.058;21.618;2024-03-25T04:20:17;98976.25;;;1.39;100.00
78223;BME280;67497;53.058;21.618;2024-03-25T04:22:18;98978.34;;;1.36;100.00
78223;BME280;67497;53.058;21.618;2024-03-25T04:24:18;98966.75;;;1.24;100.00
78223;BME280;67497;53.058;21.618;2024-03-25T04:26:19;98967.72;;;1.23;100.00
78223;BME280;67497;53.058;21.618;2024-03-25T04:28:20;98970.19;;;1.15;100.00
78223;BME280;67497;53.058;21.618;2024-03-25T04:30:20;98969.69;;;1.21;100.00
78223;BME280;67497;53.058;21.618;2024-03-25T04:32:22;98974.56;;;1.27;100.00
78223;BME280;67497;53.058;21.618;2024-03-25T04:34:22;98981.63;;;1.39;100.00
78223;BME280;67497;53.058;21.618;2024-03-25T04:36:23;98988.88;;;1.39;100.00
78223;BME280;67497;53.058;21.618;2024-03-25T04:38:23;98980.41;;;1.43;100.00
78223;BME280;67497;53.058;21.618;2024-03-25T04:40:24;98986.06;;;1.40;100.00
78223;BME280;67497;53.058;21.618;2024-03-25T04:42:25;98982.97;;;1.45;100.00
78223;BME280;67497;53.058;21.618;2024-03-25T04:44:25;98984.41;;;1.49;100.00
78223;BME280;67497;53.058;21.618;2024-03-25T04:46:27;98992.38;;;1.50;100.00
78223;BME280;67497;53.058;21.618;2024-03-25T04:48:27;98982.22;;;1.54;100.00
78223;BME280;67497;53.058;21.618;2024-03-25T04:50:28;98985.47;;;1.57;100.00
78223;BME280;67497;53.058;21.618;2024-03-25T04:52:28;98990.50;;;1.62;100.00
78223;BME280;67497;53.058;21.618;2024-03-25T04:54:29;98984.97;;;1.63;100.00
78223;BME280;67497;53.058;21.618;2024-03-25T04:56:29;98989.91;;;1.58;100.00
78223;BME280;67497;53.058;21.618;2024-03-25T04:58:31;98991.63;;;1.59;100.00
78223;BME280;67497;53.058;21.618;2024-03-25T05:00:31;98993.22;;;1.62;100.00
78223;BME280;67497;53.058;21.618;2024-03-25T05:02:32;98996.22;;;1.68;100.00
78223;BME280;67497;53.058;21.618;2024-03-25T05:04:32;98997.09;;;1.69;100.00
78223;BME280;67497;53.058;21.618;2024-03-25T05:06:32;98995.75;;;1.63;100.00
78223;BME280;67497;53.058;21.618;2024-03-25T05:08:33;98996.47;;;1.65;100.00
78223;BME280;67497;53.058;21.618;2024-03-25T05:10:33;98994.19;;;1.61;100.00
78223;BME280;67497;53.058;21.618;2024-03-25T05:12:34;98998.19;;;1.66;100.00
78223;BME280;67497;53.058;21.618;2024-03-25T05:14:34;98992.81;;;1.66;100.00
78223;BME280;67497;53.058;21.618;2024-03-25T05:16:34;98994.78;;;1.64;100.00
78223;BME280;67497;53.058;21.618;2024-03-25T05:18:35;98999.19;;;1.65;100.00
78223;BME280;67497;53.058;21.618;2024-03-25T05:20:35;98991.94;;;1.66;100.00
78223;BME280;67497;53.058;21.618;2024-03-25T05:22:35;98992.56;;;1.69;100.00
78223;BME280;67497;53.058;21.618;2024-03-25T05:24:36;99000.50;;;1.71;100.00
78223;BME280;67497;53.058;21.618;2024-03-25T05:26:36;98993.28;;;1.71;100.00
78223;BME280;67497;53.058;21.618;2024-03-25T05:28:36;98997.69;;;1.72;100.00
78223;BME280;67497;53.058;21.618;2024-03-25T05:30:37;99006.50;;;1.74;100.00
78223;BME280;67497;53.058;21.618;2024-03-25T05:32:37;99001.81;;;1.76;100.00
78223;BME280;67497;53.058;21.618;2024-03-25T05:34:38;99005.25;;;1.78;100.00
78223;BME280;67497;53.058;21.618;2024-03-25T05:36:38;99003.75;;;1.86;100.00
78223;BME280;67497;53.058;21.618;2024-03-25T05:38:39;99005.06;;;1.91;100.00
78223;BME280;67497;53.058;21.618;2024-03-25T05:40:40;99003.81;;;1.95;100.00
78223;BME280;67497;53.058;21.618;2024-03-25T05:42:40;99003.03;;;2.04;100.00
78223;BME280;67497;53.058;21.618;2024-03-25T05:44:41;99010.47;;;2.12;100.00
78223;BME280;67497;53.058;21.618;2024-03-25T05:46:41;99011.84;;;2.06;100.00
78223;BME280;67497;53.058;21.618;2024-03-25T05:48:41;99008.47;;;2.14;100.00
78223;BME280;67497;53.058;21.618;2024-03-25T05:50:43;99014.63;;;2.16;100.00
78223;BME280;67497;53.058;21.618;2024-03-25T05:52:43;99019.47;;;2.22;100.00
78223;BME280;67497;53.058;21.618;2024-03-25T05:54:44;99018.94;;;2.28;100.00
78223;BME280;67497;53.058;21.618;2024-03-25T05:56:44;99013.47;;;2.39;100.00
78223;BME280;67497;53.058;21.618;2024-03-25T05:58:44;99015.50;;;2.47;100.00
78223;BME280;67497;53.058;21.618;2024-03-25T06:00:49;99009.63;;;2.62;100.00
78223;BME280;67497;53.058;21.618;2024-03-25T06:02:49;99017.31;;;2.67;99.71
78223;BME280;67497;53.058;21.618;2024-03-25T06:04:50;99014.09;;;2.82;100.00
78223;BME280;67497;53.058;21.618;2024-03-25T06:06:50;99013.47;;;2.99;98.55
78223;BME280;67497;53.058;21.618;2024-03-25T06:08:50;99015.31;;;3.09;98.21
78223;BME280;67497;53.058;21.618;2024-03-25T06:10:51;99003.25;;;3.22;98.19
78223;BME280;67497;53.058;21.618;2024-03-25T06:12:52;99017.94;;;3.39;97.79
78223;BME280;67497;53.058;21.618;2024-03-25T06:14:52;99015.56;;;3.45;97.60
78223;BME280;67497;53.058;21.618;2024-03-25T06:16:52;99012.84;;;3.55;95.27
78223;BME280;67497;53.058;21.618;2024-03-25T06:18:53;99005.59;;;3.55;96.06
78223;BME280;67497;53.058;21.618;2024-03-25T06:20:53;99015.00;;;3.61;95.20
78223;BME280;67497;53.058;21.618;2024-03-25T06:22:53;99022.97;;;3.72;93.58
78223;BME280;67497;53.058;21.618;2024-03-25T06:24:54;99028.97;;;3.76;93.40
78223;BME280;67497;53.058;21.618;2024-03-25T06:26:54;99032.97;;;3.91;94.35
78223;BME280;67497;53.058;21.618;2024-03-25T06:28:54;99038.94;;;4.04;93.54
78223;BME280;67497;53.058;21.618;2024-03-25T06:30:55;99027.50;;;4.29;91.81
78223;BME280;67497;53.058;21.618;2024-03-25T06:33:14;99030.25;;;4.75;90.01
78223;BME280;67497;53.058;21.618;2024-03-25T06:35:32;99022.47;;;5.17;84.85
78223;BME280;67497;53.058;21.618;2024-03-25T06:37:33;99032.22;;;5.37;83.27
78223;BME280;67497;53.058;21.618;2024-03-25T06:39:33;99030.88;;;5.69;83.21
78223;BME280;67497;53.058;21.618;2024-03-25T06:41:33;99033.00;;;6.10;81.94
78223;BME280;67497;53.058;21.618;2024-03-25T06:43:35;99035.63;;;6.37;80.34
78223;BME280;67497;53.058;21.618;2024-03-25T06:45:35;99038.28;;;6.29;77.78
78223;BME280;67497;53.058;21.618;2024-03-25T06:47:35;99034.19;;;6.08;78.07
78223;BME280;67497;53.058;21.618;2024-03-25T06:49:36;99041.31;;;5.91;79.89
78223;BME280;67497;53.058;21.618;2024-03-25T06:51:36;99037.22;;;5.60;79.99
78223;BME280;67497;53.058;21.618;2024-03-25T06:53:36;99037.00;;;5.71;80.92
78223;BME280;67497;53.058;21.618;2024-03-25T06:55:37;99041.81;;;5.77;81.55
78223;BME280;67497;53.058;21.618;2024-03-25T06:57:37;99053.16;;;5.72;81.07
78223;BME280;67497;53.058;21.618;2024-03-25T06:59:37;99056.22;;;5.87;79.64
78223;BME280;67497;53.058;21.618;2024-03-25T07:01:38;99054.28;;;5.97;79.76
78223;BME280;67497;53.058;21.618;2024-03-25T07:03:38;99059.34;;;6.10;79.08
78223;BME280;67497;53.058;21.618;2024-03-25T07:05:39;99054.28;;;6.32;78.06
78223;BME280;67497;53.058;21.618;2024-03-25T07:07:39;99053.50;;;6.91;75.25
78223;BME280;67497;53.058;21.618;2024-03-25T07:09:39;99050.63;;;7.76;73.24
78223;BME280;67497;53.058;21.618;2024-03-25T07:11:40;99056.63;;;9.01;69.13
78223;BME280;67497;53.058;21.618;2024-03-25T07:13:44;99052.06;;;9.79;64.60
78223;BME280;67497;53.058;21.618;2024-03-25T07:15:45;99042.00;;;11.08;61.58
78223;BME280;67497;53.058;21.618;2024-03-25T07:17:45;99059.75;;;11.41;58.92
78223;BME280;67497;53.058;21.618;2024-03-25T07:19:45;99050.78;;;11.62;57.44
78223;BME280;67497;53.058;21.618;2024-03-25T07:21:46;99064.69;;;10.64;59.54
78223;BME280;67497;53.058;21.618;2024-03-25T07:23:46;99061.91;;;9.57;62.67
78223;BME280;67497;53.058;21.618;2024-03-25T07:25:46;99069.50;;;8.52;67.00
78223;BME280;67497;53.058;21.618;2024-03-25T07:27:47;99067.06;;;8.17;69.68
78223;BME280;67497;53.058;21.618;2024-03-25T07:29:48;99057.28;;;7.32;71.61
78223;BME280;67497;53.058;21.618;2024-03-25T07:31:49;99057.03;;;6.84;75.11
78223;BME280;67497;53.058;21.618;2024-03-25T07:33:49;99070.97;;;6.37;76.34
78223;BME280;67497;53.058;21.618;2024-03-25T07:35:49;99071.03;;;6.28;79.57
78223;BME280;67497;53.058;21.618;2024-03-25T07:37:50;99062.28;;;6.16;79.55
78223;BME280;67497;53.058;21.618;2024-03-25T07:39:51;99068.34;;;6.10;78.62
78223;BME280;67497;53.058;21.618;2024-03-25T07:41:52;99064.13;;;5.98;80.39
78223;BME280;67497;53.058;21.618;2024-03-25T07:43:53;99071.00;;;6.02;80.26
78223;BME280;67497;53.058;21.618;2024-03-25T07:45:53;99062.66;;;6.03;80.15
78223;BME280;67497;53.058;21.618;2024-03-25T07:47:54;99067.59;;;6.00;80.92
78223;BME280;67497;53.058;21.618;2024-03-25T07:49:55;99077.22;;;6.30;81.19
78223;BME280;67497;53.058;21.618;2024-03-25T07:51:56;99073.69;;;6.37;79.03
78223;BME280;67497;53.058;21.618;2024-03-25T07:53:56;99075.84;;;6.51;79.07
78223;BME280;67497;53.058;21.618;2024-03-25T07:55:56;99074.75;;;6.44;76.92
78223;BME280;67497;53.058;21.618;2024-03-25T07:57:57;99076.84;;;6.50;78.41
78223;BME280;67497;53.058;21.618;2024-03-25T07:59:57;99078.28;;;6.37;79.83
78223;BME280;67497;53.058;21.618;2024-03-25T08:01:57;99089.13;;;6.54;79.89
78223;BME280;67497;53.058;21.618;2024-03-25T08:03:58;99088.66;;;6.59;79.73
78223;BME280;67497;53.058;21.618;2024-03-25T08:05:58;99087.56;;;6.70;76.98
78223;BME280;67497;53.058;21.618;2024-03-25T08:07:58;99096.16;;;6.83;76.99
78223;BME280;67497;53.058;21.618;2024-03-25T08:09:59;99099.19;;;6.80;78.28
78223;BME280;67497;53.058;21.618;2024-03-25T08:11:59;99094.75;;;6.79;76.58
78223;BME280;67497;53.058;21.618;2024-03-25T08:13:59;99092.63;;;6.90;78.75
78223;BME280;67497;53.058;21.618;2024-03-25T08:16:00;99090.00;;;7.06;77.68
78223;BME280;67497;53.058;21.618;2024-03-25T08:18:00;99082.19;;;7.11;77.28
78223;BME280;67497;53.058;21.618;2024-03-25T08:20:01;99092.56;;;7.08;77.62
78223;BME280;67497;53.058;21.618;2024-03-25T08:22:01;99089.81;;;7.00;76.81
78223;BME280;67497;53.058;21.618;2024-03-25T08:24:02;99099.47;;;6.94;76.24
78223;BME280;67497;53.058;21.618;2024-03-25T08:26:02;99092.38;;;6.76;77.41
78223;BME280;67497;53.058;21.618;2024-03-25T08:28:03;99093.31;;;6.67;79.43
78223;BME280;67497;53.058;21.618;2024-03-25T08:30:03;99100.22;;;6.61;78.89
78223;BME280;67497;53.058;21.618;2024-03-25T08:32:04;99094.97;;;6.85;80.39
78223;BME280;67497;53.058;21.618;2024-03-25T08:34:05;99090.81;;;6.99;76.89
78223;BME280;67497;53.058;21.618;2024-03-25T08:36:07;99083.28;;;7.18;78.02
78223;BME280;67497;53.058;21.618;2024-03-25T08:38:08;99092.03;;;7.38;77.43
78223;BME280;67497;53.058;21.618;2024-03-25T08:40:08;99092.09;;;7.54;76.06
78223;BME280;67497;53.058;21.618;2024-03-25T08:42:09;99101.72;;;7.74;75.65
78223;BME280;67497;53.058;21.618;2024-03-25T08:44:09;99092.91;;;7.80;73.73
78223;BME280;67497;53.058;21.618;2024-03-25T08:46:10;99102.50;;;8.09;72.88
78223;BME280;67497;53.058;21.618;2024-03-25T08:48:11;99097.28;;;8.31;72.94
78223;BME280;67497;53.058;21.618;2024-03-25T08:50:11;99103.63;;;8.40;70.23
78223;BME280;67497;53.058;21.618;2024-03-25T08:52:12;99107.97;;;8.17;71.18
78223;BME280;67497;53.058;21.618;2024-03-25T08:54:12;99104.19;;;8.02;71.68
78223;BME280;67497;53.058;21.618;2024-03-25T08:56:12;99109.97;;;7.99;71.47
78223;BME280;67497;53.058;21.618;2024-03-25T08:58:14;99111.38;;;8.11;72.22
78223;BME280;67497;53.058;21.618;2024-03-25T09:00:14;99116.78;;;7.87;71.24
78223;BME280;67497;53.058;21.618;2024-03-25T09:02:15;99116.66;;;8.04;71.47
78223;BME280;67497;53.058;21.618;2024-03-25T09:04:15;99127.38;;;8.06;71.83
78223;BME280;67497;53.058;21.618;2024-03-25T09:06:16;99115.47;;;8.15;72.82
78223;BME280;67497;53.058;21.618;2024-03-25T09:08:16;99122.31;;;8.19;73.32
78223;BME280;67497;53.058;21.618;2024-03-25T09:10:18;99112.69;;;7.91;71.02
78223;BME280;67497;53.058;21.618;2024-03-25T09:12:37;99122.97;;;8.05;70.63
78223;BME280;67497;53.058;21.618;2024-03-25T09:14:37;99122.19;;;8.28;71.30
78223;BME280;67497;53.058;21.618;2024-03-25T09:16:38;99121.50;;;8.34;69.24
78223;BME280;67497;53.058;21.618;2024-03-25T09:18:38;99129.84;;;8.33;68.60
78223;BME280;67497;53.058;21.618;2024-03-25T09:20:39;99125.78;;;8.37;69.75
78223;BME280;67497;53.058;21.618;2024-03-25T09:22:39;99123.38;;;8.34;69.88
78223;BME280;67497;53.058;21.618;2024-03-25T09:24:40;99120.78;;;8.24;69.82
78223;BME280;67497;53.058;21.618;2024-03-25T09:26:40;99126.78;;;8.36;69.71
78223;BME280;67497;53.058;21.618;2024-03-25T09:28:40;99130.25;;;8.46;69.66
78223;BME280;67497;53.058;21.618;2024-03-25T09:30:41;99126.13;;;8.42;70.10
78223;BME280;67497;53.058;21.618;2024-03-25T09:32:41;99137.91;;;8.59;69.00
78223;BME280;67497;53.058;21.618;2024-03-25T09:34:42;99135.19;;;8.51;69.13
78223;BME280;67497;53.058;21.618;2024-03-25T09:36:44;99137.56;;;8.46;69.43
78223;BME280;67497;53.058;21.618;2024-03-25T09:38:44;99140.69;;;8.17;70.03
78223;BME280;67497;53.058;21.618;2024-03-25T09:40:44;99135.75;;;8.04;70.28
78223;BME280;67497;53.058;21.618;2024-03-25T09:42:49;99139.31;;;7.97;71.07
78223;BME280;67497;53.058;21.618;2024-03-25T09:44:54;99136.41;;;7.56;73.38
78223;BME280;67497;53.058;21.618;2024-03-25T09:46:55;99134.84;;;7.20;76.05
78223;BME280;67497;53.058;21.618;2024-03-25T09:48:55;99138.69;;;7.09;77.32
78223;BME280;67497;53.058;21.618;2024-03-25T09:50:56;99140.63;;;6.91;77.47
78223;BME280;67497;53.058;21.618;2024-03-25T09:52:56;99140.25;;;6.69;78.74
78223;BME280;67497;53.058;21.618;2024-03-25T09:54:57;99144.84;;;6.68;78.88
78223;BME280;67497;53.058;21.618;2024-03-25T09:56:58;99145.06;;;6.75;79.12
78223;BME280;67497;53.058;21.618;2024-03-25T09:58:59;99141.56;;;6.82;78.54
78223;BME280;67497;53.058;21.618;2024-03-25T10:01:00;99146.06;;;6.91;77.89
78223;BME280;67497;53.058;21.618;2024-03-25T10:03:00;99143.16;;;6.93;74.39
78223;BME280;67497;53.058;21.618;2024-03-25T10:05:01;99135.69;;;6.95;73.61
78223;BME280;67497;53.058;21.618;2024-03-25T10:07:03;99148.28;;;6.96;74.34
78223;BME280;67497;53.058;21.618;2024-03-25T10:09:07;99143.47;;;6.90;76.05
78223;BME280;67497;53.058;21.618;2024-03-25T10:11:08;99132.28;;;6.93;75.58
78223;BME280;67497;53.058;21.618;2024-03-25T10:13:08;99131.59;;;6.91;74.11
78223;BME280;67497;53.058;21.618;2024-03-25T10:15:08;99144.34;;;6.90;74.90
78223;BME280;67497;53.058;21.618;2024-03-25T10:17:09;99136.09;;;7.00;75.57
78223;BME280;67497;53.058;21.618;2024-03-25T10:19:10;99141.28;;;7.11;74.65
78223;BME280;67497;53.058;21.618;2024-03-25T10:21:10;99140.13;;;6.96;74.57
78223;BME280;67497;53.058;21.618;2024-03-25T10:23:11;99143.59;;;7.06;74.51
78223;BME280;67497;53.058;21.618;2024-03-25T10:25:27;99138.88;;;7.08;73.87
78223;BME280;67497;53.058;21.618;2024-03-25T10:27:28;99140.75;;;7.41;75.85
78223;BME280;67497;53.058;21.618;2024-03-25T10:29:28;99136.53;;;7.89;76.76
78223;BME280;67497;53.058;21.618;2024-03-25T10:31:29;99137.41;;;8.63;69.88
78223;BME280;67497;53.058;21.618;2024-03-25T10:33:30;99136.53;;;9.03;70.08
78223;BME280;67497;53.058;21.618;2024-03-25T10:35:37;99133.16;;;9.64;66.39